createdAt,value
2023-05-24T00:04:54.161Z,-18537.00
2023-05-24T00:09:55.298Z,-18528.00
2023-05-24T00:14:56.197Z,-18526.00
2023-05-24T00:19:57.476Z,-18522.00
2023-05-24T00:24:58.465Z,-18521.00
2023-05-24T00:29:59.427Z,-18520.00
2023-05-24T00:35:02.515Z,-18521.00
2023-05-24T00:40:04.241Z,-18519.00
2023-05-24T00:45:05.930Z,-18520.00
2023-05-24T00:50:08.956Z,-18515.00
2023-05-24T00:55:09.872Z,-18515.00
2023-05-24T01:00:11.921Z,-18514.00
2023-05-24T01:05:13.339Z,-18512.00
2023-05-24T01:10:31.359Z,-18505.00
2023-05-24T01:20:39.336Z,-18505.00
2023-05-24T01:25:54.574Z,-18495.00
2023-05-24T01:30:55.476Z,-18496.00
2023-05-24T01:35:58.020Z,-18499.00
2023-05-24T01:41:10.488Z,-18501.00
2023-05-24T01:46:32.418Z,-18503.00
2023-05-24T01:52:20.352Z,-18502.00
2023-05-24T01:57:22.443Z,-18493.00
2023-05-24T02:02:23.543Z,-18490.00
2023-05-24T02:07:26.281Z,-18490.00
2023-05-24T02:12:27.304Z,-18488.00
2023-05-24T02:17:28.226Z,-18488.00
2023-05-24T02:22:29.102Z,-18490.00
2023-05-24T02:27:30.368Z,-18484.00
2023-05-24T02:32:32.066Z,-18485.00
2023-05-24T02:37:33.042Z,-18481.00
2023-05-24T02:42:33.960Z,-18477.00
2023-05-24T02:47:35.015Z,-18478.00
2023-05-24T02:52:35.856Z,-18477.00
2023-05-24T02:57:37.572Z,-18478.00
2023-05-24T03:02:40.256Z,-18474.00
2023-05-24T03:07:41.624Z,-18477.00
2023-05-24T03:12:42.925Z,-18477.00
2023-05-24T03:17:44.391Z,-18476.00
2023-05-24T03:22:45.460Z,-18471.00
2023-05-24T03:27:46.389Z,-18468.00
2023-05-24T03:32:47.382Z,-18465.00
2023-05-24T03:37:48.440Z,-18467.00
2023-05-24T03:42:49.550Z,-18464.00
2023-05-24T03:47:50.479Z,-18466.00
2023-05-24T03:52:52.942Z,-18472.00
2023-05-24T03:57:53.871Z,-18469.00
2023-05-24T04:02:56.339Z,-18463.00
2023-05-24T04:07:57.290Z,-18462.00
2023-05-24T04:12:59.898Z,-18457.00
2023-05-24T04:18:02.523Z,-18461.00
2023-05-24T04:23:03.426Z,-18469.00
2023-05-24T04:28:05.489Z,-18476.00
2023-05-24T04:33:07.554Z,-18455.00
2023-05-24T04:38:08.601Z,-18467.00
2023-05-24T04:43:11.001Z,-18476.00
2023-05-24T04:48:11.879Z,-18484.00
2023-05-24T04:53:13.855Z,-18493.00
2023-05-24T04:58:15.618Z,-18504.00
2023-05-24T05:03:16.613Z,-18505.00
2023-05-24T05:08:17.628Z,-18513.00
2023-05-24T05:13:18.476Z,-18511.00
2023-05-24T05:18:19.661Z,-18519.00
2023-05-24T05:23:20.509Z,-18530.00
2023-05-24T05:28:21.560Z,-18528.00
2023-05-24T05:33:22.398Z,-18537.00
2023-05-24T05:38:23.354Z,-18547.00
2023-05-24T05:43:24.694Z,-18558.00
2023-05-24T05:48:25.605Z,-18562.00
2023-05-24T05:53:26.397Z,-18564.00
2023-05-24T05:58:27.360Z,-18576.00
2023-05-24T06:03:28.345Z,-18577.00
2023-05-24T06:08:34.133Z,-18582.00
2023-05-24T06:13:34.949Z,-18595.00
2023-05-24T06:18:36.235Z,-18594.00
2023-05-24T06:23:37.147Z,-18603.00
2023-05-24T06:28:38.544Z,-18599.00
2023-05-24T06:33:42.629Z,-18609.00
2023-05-24T06:38:45.651Z,-18609.00
2023-05-24T06:43:46.721Z,-18611.00
2023-05-24T06:48:47.653Z,-18619.00
2023-05-24T06:53:48.736Z,-18619.00
2023-05-24T06:58:50.240Z,-18609.00
2023-05-24T07:03:51.916Z,-18616.00
2023-05-24T07:08:52.767Z,-18621.00
2023-05-24T07:13:53.661Z,-18615.00
2023-05-24T07:18:54.868Z,-18615.00
2023-05-24T07:23:56.276Z,-18615.00
2023-05-24T07:28:57.157Z,-18629.00
2023-05-24T07:33:57.955Z,-18620.00
2023-05-24T07:38:59.896Z,-18622.00
2023-05-24T07:44:00.730Z,-18634.00
2023-05-24T07:49:01.593Z,-18640.00
2023-05-24T07:54:02.550Z,-18646.00
2023-05-24T07:59:04.097Z,-18646.00
2023-05-24T08:04:04.985Z,-18657.00
2023-05-24T08:09:07.671Z,-18661.00
2023-05-24T08:14:08.541Z,-18659.00
2023-05-24T08:19:09.812Z,-18660.00
2023-05-24T08:24:11.005Z,-18667.00
2023-05-24T08:29:11.969Z,-18684.00
2023-05-24T08:34:12.916Z,-18685.00
2023-05-24T08:39:14.144Z,-18675.00
2023-05-24T08:44:18.630Z,-18672.00
2023-05-24T08:49:20.688Z,-18662.00
2023-05-24T08:54:22.068Z,-18658.00
2023-05-24T08:59:24.527Z,-18656.00
2023-05-24T09:04:27.006Z,-18653.00
2023-05-24T09:09:28.579Z,-18650.00
2023-05-24T09:14:30.117Z,-18655.00
2023-05-24T09:19:30.916Z,-18650.00
2023-05-24T09:24:40.686Z,-18658.00
2023-05-24T09:29:42.984Z,-18667.00
2023-05-24T09:34:48.435Z,-18655.00
2023-05-24T09:39:51.164Z,-18659.00
2023-05-24T09:45:25.463Z,-18673.00
2023-05-24T09:50:26.506Z,-18698.00
2023-05-24T09:55:27.379Z,-18714.00
2023-05-24T10:00:30.215Z,-18722.00
2023-05-24T10:05:31.436Z,-18725.00
2023-05-24T10:10:33.140Z,-18731.00
2023-05-24T10:15:33.981Z,-18726.00
2023-05-24T10:20:34.868Z,-18732.00
2023-05-24T10:25:41.193Z,-18745.00
2023-05-24T10:31:03.767Z,-18740.00
2023-05-24T10:36:09.902Z,-18745.00
2023-05-24T10:41:12.281Z,-18756.00
2023-05-24T10:46:18.310Z,-18742.00
2023-05-24T10:51:37.797Z,-18736.00
2023-05-24T10:56:44.397Z,-18748.00
2023-05-24T11:01:54.538Z,-18752.00
2023-05-24T11:07:08.732Z,-18750.00
2023-05-24T11:12:13.192Z,-18772.00
2023-05-24T11:17:14.354Z,-18775.00
2023-05-24T11:22:16.402Z,-18790.00
2023-05-24T11:27:17.358Z,-18797.00
2023-05-24T11:32:20.857Z,-18768.00
2023-05-24T11:37:31.535Z,-18740.00
2023-05-24T11:42:37.545Z,-18728.00
2023-05-24T11:47:38.662Z,-18731.00
2023-05-24T11:52:39.898Z,-18736.00
2023-05-24T11:57:48.014Z,-18741.00
2023-05-24T12:02:49.175Z,-18723.00
2023-05-24T12:08:02.129Z,-18731.00
2023-05-24T12:13:03.667Z,-18770.00
2023-05-24T12:18:04.824Z,-18769.00
2023-05-24T12:23:08.189Z,-18764.00
2023-05-24T12:28:09.498Z,-18743.00
2023-05-24T12:33:11.309Z,-18726.00
2023-05-24T12:38:12.316Z,-18728.00
2023-05-24T12:43:15.365Z,-18724.00
2023-05-24T12:48:16.238Z,-18720.00
2023-05-24T12:53:19.302Z,-18711.00
2023-05-24T12:58:20.274Z,-18715.00
2023-05-24T13:03:22.157Z,-18705.00
2023-05-24T13:08:23.564Z,-18697.00
2023-05-24T13:13:24.439Z,-18703.00
2023-05-24T13:18:25.612Z,-18699.00
2023-05-24T13:23:27.207Z,-18695.00
2023-05-24T13:28:30.396Z,-18698.00
2023-05-24T13:33:34.385Z,-18686.00
2023-05-24T13:38:36.047Z,-18679.00
2023-05-24T13:43:37.134Z,-18677.00
2023-05-24T13:48:38.054Z,-18681.00
2023-05-24T13:53:38.959Z,-18674.00
2023-05-24T13:58:39.794Z,-18666.00
2023-05-24T14:03:41.000Z,-18675.00
2023-05-24T14:08:41.865Z,-18676.00
2023-05-24T14:14:43.085Z,-18674.00
2023-05-24T14:19:59.259Z,-18677.00
2023-05-24T14:25:00.245Z,-18678.00
2023-05-24T14:30:01.105Z,-18681.00
2023-05-24T14:35:02.193Z,-18687.00
2023-05-24T14:40:06.153Z,-18693.00
2023-05-24T14:45:08.049Z,-18701.00
2023-05-24T14:50:09.066Z,-18692.00
2023-05-24T14:55:10.228Z,-18697.00
2023-05-24T15:00:12.325Z,-18698.00
2023-05-24T15:05:13.453Z,-18696.00
2023-05-24T15:10:14.332Z,-18699.00
2023-05-24T15:15:15.163Z,-18701.00
2023-05-24T15:20:16.065Z,-18697.00
2023-05-24T15:25:17.091Z,-18703.00
2023-05-24T15:30:19.243Z,-18713.00
2023-05-24T15:35:20.197Z,-18695.00
2023-05-24T15:40:24.313Z,-18689.00
2023-05-24T15:45:26.140Z,-18688.00
2023-05-24T15:50:47.560Z,-18688.00
2023-05-24T15:55:59.662Z,-18684.00
2023-05-24T16:01:00.626Z,-18684.00
2023-05-24T16:06:01.528Z,-18681.00
2023-05-24T16:11:07.294Z,-18675.00
2023-05-24T16:16:08.202Z,-18674.00
2023-05-24T16:21:09.048Z,-18672.00
2023-05-24T16:26:09.865Z,-18668.00
2023-05-24T16:31:10.794Z,-18669.00
2023-05-24T16:36:11.794Z,-18668.00
2023-05-24T16:41:13.301Z,-18667.00
2023-05-24T16:46:14.146Z,-18667.00
2023-05-24T16:51:15.748Z,-18663.00
2023-05-24T16:56:16.932Z,-18665.00
2023-05-24T17:01:18.250Z,-18666.00
2023-05-24T17:06:19.627Z,-18663.00
2023-05-24T17:11:22.208Z,-18669.00
2023-05-24T17:16:23.129Z,-18670.00
2023-05-24T17:21:27.104Z,-18662.00
2023-05-24T17:26:27.911Z,-18658.00
2023-05-24T17:31:28.787Z,-18652.00
2023-05-24T17:36:32.793Z,-18651.00
2023-05-24T17:41:33.588Z,-18648.00
2023-05-24T17:46:36.399Z,-18643.00
2023-05-24T17:51:38.306Z,-18640.00
2023-05-24T17:56:39.219Z,-18634.00
2023-05-24T18:01:40.377Z,-18631.00
2023-05-24T18:06:41.331Z,-18635.00
2023-05-24T18:11:42.155Z,-18633.00
2023-05-24T18:16:45.135Z,-18637.00
2023-05-24T18:21:48.023Z,-18633.00
2023-05-24T18:26:48.823Z,-18628.00
2023-05-24T18:31:50.233Z,-18629.00
2023-05-24T18:36:53.733Z,-18625.00
2023-05-24T18:41:54.526Z,-18625.00
2023-05-24T18:46:57.015Z,-18621.00
2023-05-24T18:51:57.831Z,-18614.00
2023-05-24T18:57:03.835Z,-18615.00
2023-05-24T19:02:05.711Z,-18613.00
2023-05-24T19:07:07.800Z,-18608.00
2023-05-24T19:12:10.748Z,-18602.00
2023-05-24T19:17:11.537Z,-18599.00
2023-05-24T19:22:12.455Z,-18595.00
2023-05-24T19:27:13.806Z,-18593.00
2023-05-24T19:32:14.792Z,-18591.00
2023-05-24T19:37:15.906Z,-18590.00
2023-05-24T19:42:16.818Z,-18589.00
2023-05-24T19:47:17.649Z,-18582.00
2023-05-24T19:52:19.728Z,-18580.00
2023-05-24T19:57:20.565Z,-18580.00
2023-05-24T20:02:21.421Z,-18579.00
2023-05-24T20:07:22.331Z,-18575.00
2023-05-24T20:12:23.224Z,-18572.00
2023-05-24T20:17:24.030Z,-18569.00
2023-05-24T20:22:24.996Z,-18568.00
2023-05-24T20:27:25.814Z,-18568.00
2023-05-24T20:32:26.650Z,-18569.00
2023-05-24T20:37:27.624Z,-18566.00
2023-05-24T20:42:28.482Z,-18566.00
2023-05-24T20:47:30.353Z,-18563.00
2023-05-24T20:52:31.414Z,-18560.00
2023-05-24T20:57:32.252Z,-18557.00
2023-05-24T21:02:33.261Z,-18561.00
2023-05-24T21:07:34.320Z,-18560.00
2023-05-24T21:12:35.158Z,-18552.00
2023-05-24T21:17:36.022Z,-18552.00
2023-05-24T21:22:36.836Z,-18550.00
2023-05-24T21:27:37.652Z,-18550.00
2023-05-24T21:32:38.493Z,-18549.00
2023-05-24T21:37:39.454Z,-18541.00
2023-05-24T21:42:40.310Z,-18544.00
2023-05-24T21:47:41.872Z,-18545.00
2023-05-24T21:52:43.044Z,-18543.00
2023-05-24T21:57:43.855Z,-18542.00
2023-05-24T22:02:45.465Z,-18548.00
2023-05-24T22:07:46.479Z,-18546.00
2023-05-24T22:12:47.550Z,-18548.00
2023-05-24T22:17:49.516Z,-18545.00
2023-05-24T22:22:52.661Z,-18544.00
2023-05-24T22:27:57.236Z,-18539.00
2023-05-24T22:32:58.262Z,-18542.00
2023-05-24T22:37:59.322Z,-18537.00
2023-05-24T22:43:00.302Z,-18540.00
2023-05-24T22:48:02.558Z,-18534.00
2023-05-24T22:53:03.413Z,-18537.00
2023-05-24T22:58:04.273Z,-18529.00
2023-05-24T23:03:06.890Z,-18535.00
2023-05-24T23:08:16.790Z,-18532.00
2023-05-24T23:13:18.245Z,-18533.00
2023-05-24T23:18:21.506Z,-18532.00
2023-05-24T23:23:23.212Z,-18535.00
2023-05-24T23:28:24.015Z,-18533.00
2023-05-24T23:33:24.815Z,-18531.00
2023-05-24T23:38:25.745Z,-18528.00
2023-05-24T23:43:26.676Z,-18528.00
2023-05-24T23:48:27.482Z,-18527.00
2023-05-24T23:53:28.271Z,-18527.00
2023-05-24T23:58:29.120Z,-18523.00
